首页
METAR-TAF:

METAR-TAF

机场 :

Chapleau, 安大略省, 加拿大

纬度: 47-49N, 经度: 083-21W, 海拔: 447米

当前天气观测

该预报发布于3小时和22分钟前的02:00 UTC
风速9节,风向
温度 -20°C
湿度 84%
气压 995 hPa
能見度: 1.2公里

METAR: CYLD 100200Z 36009KT 3/4SM SN VV016 M20/M22 A2939 RMK SN8 /S01/ LAST STFD OB/NEXT 101100UTC SLP003

时间: 00:22 (05:22 UTC)

预报

该预报发布于8小时和37分钟前的20:45 UTC
预报有效从09日的 20点(UTC)到 10日的 02点(UTC)
风速12节,风向东北
能見度: 1.2公里
阴天层高于900英尺
小阵雪
短暂存在
从 09日的 20点(UTC)到 09日的 23点(UTC)
能見度: 9.7公里
阴天层高于2500英尺
(小) 冻, 毛毛雨, 轻雾
从 09日的 2230点(UTC)
风速12节,风向东北
能見度: 6.4公里
阴天层高于800英尺
(小) 冻, 毛毛雨, 小雪, 轻雾
短暂存在
从 09日的 22点(UTC)到 09日的 24点(UTC)
能見度: 9.7公里
阴天层高于1000英尺
小雪
从 10日的 0000点(UTC)
风速10节,风向北转东北
能見度: 1.6公里
阴天层高于700英尺
小雪
短暂存在
从 10日的 00点(UTC)到 10日的 02点(UTC)
能見度: 4.8公里
阴天层高于1000英尺
小雪

TAF: CYLD 092045Z 0920/1002 05012KT 3/4SM -SHSN OVC009 TEMPO 0920/0923 6SM -FZDZ BR OVC025 FM092230 05012KT 4SM -FZDZ -SN BR OVC008 TEMPO 0922/0924 6SM -SN OVC010 FM100000 03010KT 1SM -SN OVC007 TEMPO 1000/1002 3SM -SN OVC010 RMK NXT FCST WILL BE ISSUED AT 101245Z

超过4000个机场的气象观测和天气预报(METAR&TAF报告)。

可查询的气象台以黄色和红色小点在地图上表示。

将鼠标移到小点上方,可查看气象台名称。

然后点击查看天气观测和预报。

如需切换地图:点击带黑十字的绿色按钮放大地图;点击带横线的绿色按钮缩小地图;或者点击绿色箭头查看邻近地区的地图。


METAR-TAF: